Baychester, New York
Current Conditions -  °F | °C
As of 5:28 AM on Tuesday 27 Jan 2015 (Local Time) from KLGA Reporting Station
Light Snow Light Snow  
Wind Chill:   Ceiling: 3100
Heat Index: 21°   Visibility: 2.5mi
Dew Point: 16°   Wind: 16mph
Humidity: 80%   Direction: 340°NNW
Pressure: 29.64"   Gusts: 30mph
Location:  40.8683°N, 73.8469°W
Report Text: KLGA 271028Z 34014G26KT 2 1/2SM -SN FEW019 OVC031 M06/M09 A2964 RMK AO2 PK WND 35028/1012 VIS 1 3/4 R22 SW P0000 $
Loading
Personal Weather Stations






























Interactive Weather Map New forecast layout! Learn more

10-Day Weather Forecast

Advertisements
Track Severe Weather on mobile